Time;durP1;ratioP1;P1;durP2;ratioP2;P2;SDS_P1;SDS_P2;PMS_P1;PMS_P2;Temp;Humidity;BMP_temperature;BMP_pressure;BME280_temperature;BME280_humidity;BME280_pressure;Samples;Min_cycle;Max_cycle;Signal;HPM_P1;HPM_P2
2022/12/17 13:06:39;;;;;;;48.60;29.73;;;-1.30;99.90;;;;;;5077625;28;20524;-68
2022/12/17 13:09:20;;;;;;;48.63;31.47;;;-1.50;99.90;;;;;;5080909;28;20818;-68
2022/12/17 13:11:48;;;;;;;45.87;30.83;;;-1.50;99.90;;;;;;5080002;28;20542;-69
2022/12/17 13:14:19;;;;;;;42.67;27.13;;;-1.60;99.90;;;;;;5084222;28;20457;-69
2022/12/17 13:16:52;;;;;;;45.37;28.97;;;-1.60;99.90;;;;;;5079372;28;20966;-68
2022/12/17 13:19:34;;;;;;;44.03;29.97;;;-1.50;99.90;;;;;;5082248;28;21078;-69
2022/12/17 13:22:11;;;;;;;45.70;30.30;;;-1.50;99.90;;;;;;5077346;28;20462;-68
2022/12/17 13:24:38;;;;;;;48.90;27.43;;;-1.50;99.90;;;;;;5080853;28;20497;-69
2022/12/17 13:27:25;;;;;;;47.20;28.60;;;-1.40;99.90;;;;;;5082446;28;20956;-69
2022/12/17 13:29:52;;;;;;;43.33;28.87;;;-1.30;99.90;;;;;;5077049;28;20456;-70
2022/12/17 13:32:22;;;;;;;47.83;28.00;;;;;;;;;;5080981;28;20465;-69
2022/12/17 13:34:58;;;;;;;81.17;45.93;;;;;;;;;;5082506;28;20490;-68
2022/12/17 13:37:31;;;;;;;46.83;30.57;;;;;;;;;;5080944;28;20503;-70
2022/12/17 13:40:13;;;;;;;40.27;29.40;;;-1.40;99.90;;;;;;5080837;28;20458;-69
2022/12/17 13:42:41;;;;;;;43.33;30.23;;;-1.40;99.90;;;;;;5083359;28;20457;-69
2022/12/17 13:45:08;;;;;;;49.83;30.53;;;;;;;;;;5081438;28;20483;-70
2022/12/17 13:47:37;;;;;;;49.97;32.57;;;;;;;;;;5082112;28;20465;-69
2022/12/17 13:50:19;;;;;;;53.30;33.67;;;;;;;;;;5070087;28;20471;-70
2022/12/17 13:52:46;;;;;;;48.20;30.67;;;;;;;;;;5077660;28;21066;-69
2022/12/17 13:55:18;;;;;;;40.90;29.30;;;;;;;;;;5082575;28;20469;-69
2022/12/17 13:57:46;;;;;;;50.57;31.43;;;-1.10;99.90;;;;;;5080445;28;20497;-69
2022/12/17 14:00:20;;;;;;;57.60;33.47;;;-1.30;99.90;;;;;;5075900;28;20818;-68
2022/12/17 14:02:48;;;;;;;45.13;29.63;;;-1.40;99.90;;;;;;5079591;28;20470;-69
2022/12/17 14:05:27;;;;;;;55.63;33.60;;;-1.40;99.90;;;;;;5080261;28;20485;-69
2022/12/17 14:07:54;;;;;;;59.20;33.63;;;;;;;;;;5080760;28;20462;-69
2022/12/17 14:10:21;;;;;;;47.27;32.30;;;-1.30;99.90;;;;;;5078993;28;20464;-69
2022/12/17 14:12:48;;;;;;;59.80;33.10;;;-1.10;99.90;;;;;;5080885;28;20808;-70
2022/12/17 14:15:23;;;;;;;62.70;36.47;;;-1.00;99.90;;;;;;5079120;28;20465;-69
2022/12/17 14:17:51;;;;;;;63.10;38.97;;;-0.90;99.90;;;;;;5077611;28;20493;-69
2022/12/17 14:20:20;;;;;;;61.80;38.03;;;-0.80;99.90;;;;;;5070955;28;20473;-69
2022/12/17 14:22:50;;;;;;;45.20;32.40;;;-0.80;99.90;;;;;;5077058;28;20512;-70
2022/12/17 14:25:20;;;;;;;59.90;39.87;;;-0.80;99.90;;;;;;5071639;28;20469;-69
2022/12/17 14:27:55;;;;;;;51.97;36.57;;;-0.80;99.90;;;;;;5078570;28;20453;-69
2022/12/17 14:30:25;;;;;;;51.80;35.00;;;-0.80;99.90;;;;;;5079637;28;20466;-70
2022/12/17 14:32:52;;;;;;;61.77;38.13;;;-0.70;99.90;;;;;;5083283;28;20474;-69
2022/12/17 14:35:24;;;;;;;54.70;32.73;;;-0.50;99.90;;;;;;5080129;28;20910;-69
2022/12/17 14:37:52;;;;;;;60.77;34.73;;;-0.40;99.90;;;;;;5082352;28;20486;-70
2022/12/17 14:40:19;;;;;;;48.87;33.63;;;-0.30;99.90;;;;;;5077537;28;20459;-69
2022/12/17 14:42:46;;;;;;;49.20;32.53;;;-0.20;99.90;;;;;;5083619;28;20473;-69
2022/12/17 14:45:23;;;;;;;70.77;35.17;;;-0.10;99.90;;;;;;5072882;28;20491;-69
2022/12/17 14:47:55;;;;;;;49.30;32.43;;;-0.30;99.90;;;;;;5076444;28;20820;-69
2022/12/17 14:50:32;;;;;;;42.77;31.83;;;-0.40;99.90;;;;;;5071083;28;20463;-69
2022/12/17 14:53:02;;;;;;;45.97;32.43;;;-0.60;99.90;;;;;;5082215;28;20462;-69
2022/12/17 14:55:35;;;;;;;48.53;32.93;;;-0.80;99.90;;;;;;5074999;28;20556;-70
2022/12/17 14:58:15;;;;;;;50.83;32.10;;;-1.10;99.90;;;;;;5083546;28;20498;-70
2022/12/17 15:00:43;;;;;;;52.13;35.37;;;;;;;;;;5081390;28;20465;-69
2022/12/17 15:03:11;;;;;;;49.77;34.50;;;;;;;;;;5076632;28;20458;-70
2022/12/17 15:05:38;;;;;;;56.57;33.10;;;-1.50;99.90;;;;;;5062193;28;20459;-70
2022/12/17 15:08:07;;;;;;;49.33;33.63;;;;;;;;;;5061468;28;20619;-69
2022/12/17 15:10:34;;;;;;;49.27;31.77;;;-1.80;99.90;;;;;;5061019;28;20482;-70
2022/12/17 15:13:01;;;;;;;63.30;35.33;;;-1.90;99.90;;;;;;5065779;28;20455;-69
2022/12/17 15:15:28;;;;;;;55.23;32.23;;;-2.00;99.90;;;;;;5060715;28;20469;-70
2022/12/17 15:17:55;;;;;;;58.90;33.17;;;-2.00;99.90;;;;;;5058287;28;20497;-69
2022/12/17 15:20:22;;;;;;;46.03;33.93;;;-2.10;99.90;;;;;;5060441;28;21358;-69
2022/12/17 15:22:49;;;;;;;50.57;34.63;;;;;;;;;;5059737;28;20937;-70
2022/12/17 15:25:19;;;;;;;56.70;34.03;;;;;;;;;;5059264;28;20451;-70
2022/12/17 15:27:47;;;;;;;52.30;34.07;;;-2.50;99.90;;;;;;5057373;28;20841;-70
2022/12/17 15:30:15;;;;;;;56.20;33.97;;;-2.50;99.90;;;;;;5054656;28;20841;-70
2022/12/17 15:32:42;;;;;;;42.87;29.70;;;-2.60;99.90;;;;;;5058916;28;20452;-70
2022/12/17 15:35:11;;;;;;;57.37;32.73;;;-2.60;99.90;;;;;;5066841;28;21369;-69
2022/12/17 15:37:37;;;;;;;62.63;36.50;;;-2.60;99.90;;;;;;5055437;28;20491;-70
2022/12/17 15:40:05;;;;;;;51.53;32.70;;;;;;;;;;5058151;28;20451;-69
2022/12/17 15:45:18;;;;;;;53.60;32.10;;;-2.90;99.90;;;;;;5060021;28;20528;-70
2022/12/17 15:47:45;;;;;;;55.87;35.83;;;-3.00;99.90;;;;;;5053685;28;20460;-70
2022/12/17 15:50:12;;;;;;;63.37;34.67;;;-3.10;99.90;;;;;;5060744;28;20455;-70
2022/12/17 15:52:38;;;;;;;55.87;34.80;;;-3.20;99.90;;;;;;5054406;28;20459;-70
2022/12/17 15:55:06;;;;;;;54.23;34.70;;;-3.20;99.90;;;;;;5060852;28;20458;-71
2022/12/17 15:57:34;;;;;;;54.90;33.47;;;-3.30;99.90;;;;;;5055260;28;20491;-70
2022/12/17 16:00:01;;;;;;;57.67;34.57;;;-3.30;99.90;;;;;;5056629;28;20473;-70
2022/12/17 16:02:29;;;;;;;53.80;33.93;;;;;;;;;;5056056;28;20466;-70
2022/12/17 16:04:56;;;;;;;49.30;32.30;;;-3.60;99.90;;;;;;5074009;28;20870;-70
2022/12/17 16:07:23;;;;;;;50.20;31.13;;;-3.70;99.90;;;;;;5082930;28;20470;-70
2022/12/17 16:09:49;;;;;;;52.30;32.20;;;-3.80;99.90;;;;;;5084816;28;20547;-70
2022/12/17 16:12:17;;;;;;;51.30;33.47;;;-3.90;99.90;;;;;;5083580;28;20814;-70
2022/12/17 16:14:45;;;;;;;61.27;36.90;;;-4.10;99.90;;;;;;5080420;28;20869;-71
2022/12/17 16:17:11;;;;;;;55.90;34.00;;;-4.10;99.90;;;;;;5082904;28;20750;-70
2022/12/17 16:19:39;;;;;;;63.37;36.30;;;-4.20;99.90;;;;;;5073227;28;20473;-70
2022/12/17 16:22:06;;;;;;;52.90;33.73;;;-4.20;99.90;;;;;;5087172;28;20467;-70
2022/12/17 16:24:32;;;;;;;53.40;32.00;;;-4.10;99.90;;;;;;5084730;28;20465;-70
2022/12/17 16:27:00;;;;;;;54.57;31.87;;;-4.10;99.90;;;;;;5080048;28;20458;-70
2022/12/17 16:29:27;;;;;;;59.03;33.83;;;-4.20;99.90;;;;;;5078239;28;20463;-70
2022/12/17 16:31:56;;;;;;;61.93;36.17;;;-4.20;99.90;;;;;;5088021;28;20542;-70
2022/12/17 16:34:22;;;;;;;57.27;34.27;;;-4.20;99.90;;;;;;5086386;28;20458;-70
2022/12/17 16:36:49;;;;;;;52.00;31.67;;;-4.20;99.90;;;;;;5081438;28;20512;-70
2022/12/17 16:39:18;;;;;;;51.07;32.70;;;-4.20;99.90;;;;;;5081382;28;20455;-70
2022/12/17 16:41:45;;;;;;;56.17;33.67;;;-4.30;99.90;;;;;;5079823;28;20497;-70
2022/12/17 16:44:12;;;;;;;48.13;31.70;;;-4.40;99.90;;;;;;5083293;28;20469;-70
2022/12/17 16:46:41;;;;;;;46.73;31.73;;;-4.40;99.90;;;;;;5088401;28;20936;-70
2022/12/17 16:49:11;;;;;;;48.23;32.07;;;-4.40;99.90;;;;;;5080489;28;20462;-70
2022/12/17 16:51:39;;;;;;;49.93;29.50;;;-4.50;99.90;;;;;;5080951;28;20521;-70
2022/12/17 16:54:06;;;;;;;46.10;30.50;;;;;;;;;;5081235;28;20466;-70
2022/12/17 16:56:34;;;;;;;48.27;32.60;;;;;;;;;;5079614;28;20490;-70
2022/12/17 16:59:03;;;;;;;53.73;32.10;;;-4.70;99.90;;;;;;5078362;28;20466;-71
2022/12/17 17:01:30;;;;;;;44.57;30.87;;;-4.70;99.90;;;;;;5085532;28;20582;-70
2022/12/17 17:03:58;;;;;;;43.30;30.37;;;-4.70;99.90;;;;;;5076796;28;20515;-70
2022/12/17 17:06:27;;;;;;;43.37;31.63;;;;;;;;;;5082950;28;20474;-70
2022/12/17 17:08:53;;;;;;;55.57;30.60;;;-4.80;99.90;;;;;;5083629;28;20466;-70
2022/12/17 17:11:23;;;;;;;51.83;31.30;;;-4.90;99.90;;;;;;5082740;28;20540;-70
2022/12/17 17:13:51;;;;;;;53.63;31.73;;;-4.90;99.90;;;;;;5081272;28;20466;-70
2022/12/17 17:16:21;;;;;;;54.00;32.77;;;-4.90;99.90;;;;;;5079405;28;20846;-69
2022/12/17 17:18:48;;;;;;;57.13;30.87;;;-4.90;99.90;;;;;;5076915;28;20486;-70
2022/12/17 17:21:23;;;;;;;53.67;32.23;;;;;;;;;;5081116;28;20513;-70
2022/12/17 17:23:52;;;;;;;56.87;31.90;;;-5.00;99.90;;;;;;5081342;28;20472;-70
2022/12/17 17:26:20;;;;;;;47.73;32.03;;;-5.00;99.90;;;;;;5083557;28;20465;-70
2022/12/17 17:28:47;;;;;;;51.37;30.07;;;-5.00;99.90;;;;;;5077496;28;20473;-70
2022/12/17 17:31:15;;;;;;;43.93;29.67;;;-5.00;99.90;;;;;;5077771;28;20458;-70
2022/12/17 17:33:46;;;;;;;44.53;29.70;;;-5.00;99.90;;;;;;5076147;28;20489;-69
2022/12/17 17:36:15;;;;;;;39.83;29.50;;;-5.00;99.90;;;;;;5080510;28;20530;-70
2022/12/17 17:38:42;;;;;;;37.40;28.20;;;-5.00;99.90;;;;;;5083599;28;20501;-70
2022/12/17 17:41:12;;;;;;;39.63;28.83;;;-4.90;99.90;;;;;;5080979;28;20473;-70
2022/12/17 17:43:39;;;;;;;39.20;26.90;;;;;;;;;;5077365;28;20470;-70
2022/12/17 17:46:08;;;;;;;49.77;27.83;;;-4.90;99.90;;;;;;5078936;28;20807;-69
2022/12/17 17:48:35;;;;;;;39.93;27.40;;;-4.90;99.90;;;;;;5078655;28;20454;-71
2022/12/17 17:51:07;;;;;;;39.63;29.50;;;-5.00;99.90;;;;;;5082045;28;20462;-69
2022/12/17 17:53:34;;;;;;;35.23;25.90;;;-5.00;99.90;;;;;;5081351;28;20466;-70
2022/12/17 17:56:05;;;;;;;37.83;26.50;;;-5.00;99.90;;;;;;5082742;28;20462;-69
2022/12/17 17:58:34;;;;;;;34.50;26.10;;;-5.10;99.90;;;;;;5081327;28;20486;-69
2022/12/17 18:01:08;;;;;;;40.53;27.03;;;-5.00;99.90;;;;;;5082779;28;21008;-69
2022/12/17 18:03:36;;;;;;;35.67;26.90;;;-5.00;99.90;;;;;;5080404;28;20996;-69
2022/12/17 18:06:03;;;;;;;35.00;26.63;;;;;;;;;;5079060;28;20501;-69
2022/12/17 18:08:30;;;;;;;42.83;29.93;;;-4.90;99.90;;;;;;5082399;28;20458;-69
2022/12/17 18:10:58;;;;;;;42.03;28.30;;;-5.00;99.90;;;;;;5084268;28;20469;-70
2022/12/17 18:16:12;;;;;;;30.90;25.10;;;-5.10;99.90;;;;;;5079725;28;20823;-70
2022/12/17 18:18:39;;;;;;;34.63;24.90;;;-5.20;99.90;;;;;;5074482;28;20482;-69
2022/12/17 18:21:08;;;;;;;39.67;26.97;;;-5.30;99.90;;;;;;5079287;28;20466;-69
2022/12/17 18:23:36;;;;;;;36.10;25.20;;;-5.40;99.90;;;;;;5079455;28;20969;-69
2022/12/17 18:26:08;;;;;;;37.73;26.77;;;-5.40;99.90;;;;;;5077816;28;21143;-69
2022/12/17 18:28:35;;;;;;;33.53;26.60;;;-5.40;99.90;;;;;;5084959;28;20470;-69
2022/12/17 18:31:07;;;;;;;36.60;25.70;;;-5.40;99.90;;;;;;5080833;28;20456;-69
2022/12/17 18:33:37;;;;;;;36.50;26.23;;;-5.40;99.90;;;;;;5074481;28;20965;-69
2022/12/17 18:36:08;;;;;;;37.43;27.63;;;-5.50;99.90;;;;;;5078594;28;20456;-69
2022/12/17 18:38:35;;;;;;;32.00;25.03;;;-5.50;99.90;;;;;;5079306;28;20487;-69
2022/12/17 18:43:21;;;;;;;33.80;25.33;;;;;;;;;;5083110;28;20975;-69
2022/12/17 18:43:51;;;;;;;33.37;23.00;;;-5.60;99.90;;;;;;5081638;28;20459;-69
2022/12/17 18:46:18;;;;;;;40.53;26.03;;;-5.60;99.90;;;;;;5083713;28;20466;-69
2022/12/17 18:48:46;;;;;;;36.40;27.07;;;-5.60;99.90;;;;;;5077343;28;21147;-69
2022/12/17 18:51:13;;;;;;;38.53;24.27;;;;;;;;;;5079835;28;20553;-69
2022/12/17 18:53:41;;;;;;;31.63;24.73;;;;;;;;;;5078771;28;20472;-69
2022/12/17 18:56:10;;;;;;;35.33;25.20;;;-5.50;99.90;;;;;;5072296;28;20589;-69
2022/12/17 18:58:37;;;;;;;33.67;26.13;;;-5.50;99.90;;;;;;5078486;28;20843;-69
2022/12/17 19:01:04;;;;;;;45.83;25.07;;;-5.50;99.90;;;;;;5079752;28;20497;-69
2022/12/17 19:03:31;;;;;;;43.83;25.47;;;-5.40;99.90;;;;;;5082124;28;20516;-69
2022/12/17 19:06:04;;;;;;;34.60;24.40;;;-5.50;99.90;;;;;;5081779;28;20461;-69
2022/12/17 19:08:34;;;;;;;35.27;25.10;;;-5.50;99.90;;;;;;5074270;28;20971;-69
2022/12/17 19:11:05;;;;;;;40.67;26.17;;;-5.40;99.90;;;;;;5075772;28;20465;-69
2022/12/17 19:13:32;;;;;;;39.83;25.47;;;-5.40;99.90;;;;;;5079210;28;20974;-69
2022/12/17 19:16:05;;;;;;;34.70;24.47;;;-5.40;99.90;;;;;;5080706;28;20451;-69
2022/12/17 19:18:32;;;;;;;34.07;25.30;;;-5.40;99.90;;;;;;5076843;28;20603;-69
2022/12/17 19:21:01;;;;;;;36.07;26.77;;;;;;;;;;5076595;28;20553;-69
2022/12/17 19:23:28;;;;;;;39.63;26.60;;;-5.30;99.90;;;;;;5078298;28;20476;-69
2022/12/17 19:25:55;;;;;;;38.43;24.07;;;-5.30;99.90;;;;;;5070880;28;20471;-69
2022/12/17 19:28:23;;;;;;;35.23;25.20;;;-5.20;99.90;;;;;;5076708;28;20479;-69
2022/12/17 19:30:56;;;;;;;32.20;24.77;;;-5.20;99.90;;;;;;5085986;28;20463;-69
2022/12/17 19:33:22;;;;;;;35.93;25.60;;;-5.20;99.90;;;;;;5076751;28;20473;-69
2022/12/17 19:35:49;;;;;;;48.60;26.70;;;;;;;;;;5076513;28;20620;-69
2022/12/17 19:38:18;;;;;;;34.00;25.70;;;;;;;;;;5082526;28;20528;-69
2022/12/17 19:40:50;;;;;;;42.40;26.37;;;;;;;;;;5074367;28;20902;-69
2022/12/17 19:43:17;;;;;;;36.87;25.27;;;-5.00;99.90;;;;;;5085370;28;20462;-69
2022/12/17 19:45:44;;;;;;;38.67;26.17;;;-5.00;99.90;;;;;;5077321;28;20491;-70
2022/12/17 19:48:13;;;;;;;34.37;22.97;;;-5.00;99.90;;;;;;5077751;28;20466;-69
2022/12/17 19:50:40;;;;;;;38.47;22.60;;;-5.00;99.90;;;;;;5077890;28;21040;-69
2022/12/17 19:53:07;;;;;;;34.90;24.63;;;-5.00;99.90;;;;;;5079142;28;20467;-69
2022/12/17 19:55:36;;;;;;;38.67;23.47;;;;;;;;;;5081001;28;20958;-69
2022/12/17 19:58:03;;;;;;;37.07;24.57;;;-5.10;99.90;;;;;;5081797;28;20493;-69
2022/12/17 20:00:29;;;;;;;35.63;24.10;;;-5.10;99.90;;;;;;5077304;28;20457;-69
2022/12/17 20:02:57;;;;;;;35.67;25.30;;;-5.00;99.90;;;;;;5073308;28;20489;-69
2022/12/17 20:05:23;;;;;;;33.97;24.60;;;-5.00;99.90;;;;;;5077068;28;20550;-69
2022/12/17 20:07:50;;;;;;;36.17;24.07;;;;;;;;;;5076717;28;20482;-69
2022/12/17 20:10:17;;;;;;;41.63;24.80;;;-4.80;99.90;;;;;;5080716;28;20462;-69
2022/12/17 20:12:47;;;;;;;34.90;23.70;;;;;;;;;;5073087;28;20472;-69
2022/12/17 20:15:13;;;;;;;35.40;25.47;;;-4.70;99.90;;;;;;5081489;28;20494;-69
2022/12/17 20:17:41;;;;;;;36.40;26.20;;;-4.80;99.90;;;;;;5074275;28;20487;-70
2022/12/17 20:20:08;;;;;;;41.60;25.20;;;-4.80;99.90;;;;;;5074865;28;20469;-69
2022/12/17 20:22:35;;;;;;;38.83;24.17;;;-4.80;99.90;;;;;;5075273;28;20489;-69
2022/12/17 20:25:05;;;;;;;33.53;25.37;;;-4.80;99.90;;;;;;5079064;28;20463;-69
2022/12/17 20:27:32;;;;;;;34.60;23.87;;;;;;;;;;5080364;28;20462;-69
2022/12/17 20:30:01;;;;;;;29.40;23.90;;;;;;;;;;5079876;28;21280;-69
2022/12/17 20:32:28;;;;;;;38.77;25.77;;;-4.90;99.90;;;;;;5074824;28;20953;-70
2022/12/17 20:34:55;;;;;;;35.40;25.60;;;-4.90;99.90;;;;;;5077666;28;20522;-69
2022/12/17 20:37:22;;;;;;;28.53;23.03;;;-4.90;99.90;;;;;;5078763;28;20470;-69
2022/12/17 20:39:49;;;;;;;31.97;23.67;;;-4.90;99.90;;;;;;5080496;28;20487;-69
2022/12/17 20:42:17;;;;;;;37.63;25.37;;;-4.90;99.90;;;;;;5079169;28;20485;-68
2022/12/17 20:44:44;;;;;;;30.40;23.80;;;-4.90;99.90;;;;;;5068295;28;20494;-69
2022/12/17 20:47:12;;;;;;;35.50;23.60;;;-4.90;99.90;;;;;;5076795;28;20814;-69
2022/12/17 20:49:39;;;;;;;31.30;22.40;;;-5.00;99.90;;;;;;5080307;28;20473;-69
2022/12/17 20:52:06;;;;;;;33.60;24.70;;;-5.00;99.90;;;;;;5075197;28;20466;-69
2022/12/17 20:54:34;;;;;;;30.17;23.90;;;-5.00;99.90;;;;;;5083899;28;20660;-69
2022/12/17 20:57:01;;;;;;;31.37;23.97;;;-5.00;99.90;;;;;;5083264;28;20488;-69
2022/12/17 20:59:28;;;;;;;32.77;25.33;;;-5.00;99.90;;;;;;5081019;28;20489;-69
2022/12/17 21:01:55;;;;;;;28.17;20.50;;;-5.00;99.90;;;;;;5040530;28;20469;-69
2022/12/17 21:04:24;;;;;;;29.83;22.90;;;-4.90;99.90;;;;;;5077367;28;20505;-70
2022/12/17 21:06:51;;;;;;;34.60;22.40;;;-4.80;99.90;;;;;;5072430;28;20460;-69
2022/12/17 21:09:21;;;;;;;39.00;22.40;;;-4.80;99.90;;;;;;5079599;28;20467;-69
2022/12/17 21:11:48;;;;;;;32.67;19.00;;;-4.80;99.90;;;;;;5082985;28;21147;-69
2022/12/17 21:14:17;;;;;;;38.23;23.37;;;-4.80;99.90;;;;;;5081971;28;20466;-69
2022/12/17 21:16:44;;;;;;;39.10;23.37;;;;;;;;;;5079948;28;20466;-69
2022/12/17 21:19:13;;;;;;;30.73;22.20;;;;;;;;;;5080863;28;20505;-69
2022/12/17 21:21:41;;;;;;;28.10;20.77;;;-4.70;99.90;;;;;;5081567;28;20498;-69
2022/12/17 21:24:09;;;;;;;30.17;22.80;;;-4.70;99.90;;;;;;5078142;28;20472;-68
2022/12/17 21:26:38;;;;;;;28.43;21.53;;;;;;;;;;5083722;28;20895;-68
2022/12/17 21:29:07;;;;;;;33.17;20.10;;;-4.70;99.90;;;;;;5080153;28;21020;-68
2022/12/17 21:31:36;;;;;;;34.67;23.07;;;-4.80;99.90;;;;;;5079638;28;20470;-69
2022/12/17 21:34:05;;;;;;;26.10;20.53;;;-4.80;99.90;;;;;;5083326;28;20469;-68
2022/12/17 21:36:33;;;;;;;30.63;22.70;;;-4.80;99.90;;;;;;5074169;28;20841;-69
2022/12/17 21:39:03;;;;;;;34.20;23.50;;;-4.80;99.90;;;;;;5080939;28;20489;-69
2022/12/17 21:41:32;;;;;;;34.03;24.20;;;-4.90;99.90;;;;;;5073862;28;20462;-69
2022/12/17 21:44:00;;;;;;;45.87;24.77;;;;;;;;;;5081267;28;20462;-69
2022/12/17 21:46:27;;;;;;;35.70;23.87;;;-4.90;99.90;;;;;;5076512;28;20462;-68
2022/12/17 21:48:56;;;;;;;34.30;24.03;;;-5.00;99.90;;;;;;5084823;28;20457;-69
2022/12/17 21:51:24;;;;;;;33.70;23.30;;;-5.00;99.90;;;;;;5082051;28;20497;-69
2022/12/17 21:53:53;;;;;;;30.37;22.73;;;-5.00;99.90;;;;;;5082718;28;20466;-68
2022/12/17 21:56:22;;;;;;;36.27;25.13;;;-5.00;99.90;;;;;;5078919;28;20458;-68
2022/12/17 21:58:49;;;;;;;35.37;23.60;;;-5.00;99.90;;;;;;5080050;28;20491;-68
2022/12/17 22:01:17;;;;;;;32.87;22.97;;;-5.00;99.90;;;;;;5080522;28;20468;-69
2022/12/17 22:03:45;;;;;;;30.50;22.70;;;;;;;;;;5080418;28;20954;-69
2022/12/17 22:06:15;;;;;;;31.10;24.70;;;-5.10;99.90;;;;;;5084231;28;20837;-69
2022/12/17 22:08:42;;;;;;;33.13;22.70;;;-5.00;99.90;;;;;;5080055;28;20473;-69
2022/12/17 22:11:10;;;;;;;31.57;23.43;;;-5.10;99.90;;;;;;5076102;28;20540;-69
2022/12/17 22:16:25;;;;;;;33.63;23.70;;;-5.00;99.90;;;;;;5080509;28;20466;-68
2022/12/17 22:18:53;;;;;;;27.87;23.17;;;-5.00;99.90;;;;;;5076415;28;20498;-68
2022/12/17 22:21:20;;;;;;;34.73;23.80;;;;;;;;;;5075117;28;21026;-69
2022/12/17 22:23:47;;;;;;;27.53;20.60;;;;;;;;;;5079930;28;20962;-69
2022/12/17 22:26:15;;;;;;;34.80;22.40;;;;;;;;;;5078943;28;20838;-68
2022/12/17 22:28:47;;;;;;;32.37;23.63;;;;;;;;;;5080971;28;20462;-69
2022/12/17 22:33:59;;;;;;;30.60;22.97;;;;;;;;;;5073770;28;20457;-71
2022/12/17 22:36:28;;;;;;;33.37;24.23;;;;;;;;;;5082419;28;20991;-68
2022/12/17 22:38:57;;;;;;;37.63;26.47;;;;;;;;;;5079091;28;20490;-68
2022/12/17 22:44:10;;;;;;;35.63;24.53;;;;;;;;;;5082042;28;20472;-68
2022/12/17 22:46:37;;;;;;;41.67;24.40;;;;;;;;;;5082132;28;20803;-69
2022/12/17 22:49:04;;;;;;;32.47;23.10;;;-5.60;99.90;;;;;;5075691;28;20462;-68
2022/12/17 22:51:31;;;;;;;36.23;25.73;;;-5.30;99.90;;;;;;5072423;28;20475;-69
2022/12/17 22:54:01;;;;;;;32.23;24.00;;;-5.30;99.90;;;;;;5076640;28;20858;-69
2022/12/17 22:56:29;;;;;;;31.27;24.50;;;-5.30;99.90;;;;;;5080136;28;20483;-69
2022/12/17 22:58:56;;;;;;;29.50;23.87;;;-5.30;99.90;;;;;;5082795;28;21030;-69
2022/12/17 23:01:24;;;;;;;29.20;24.23;;;-5.40;99.90;;;;;;5081183;28;20989;-68
2022/12/17 23:03:54;;;;;;;40.63;24.43;;;-5.50;99.90;;;;;;5078007;28;21017;-68
2022/12/17 23:06:21;;;;;;;31.73;22.80;;;-5.50;99.90;;;;;;5077857;28;20468;-69
2022/12/17 23:08:48;;;;;;;33.90;24.70;;;-5.50;99.90;;;;;;5081791;28;20453;-69
2022/12/17 23:11:17;;;;;;;33.43;23.97;;;-5.60;99.90;;;;;;5081426;28;20473;-69
2022/12/17 23:13:44;;;;;;;35.77;23.90;;;-5.70;99.90;;;;;;5081148;28;20489;-69
2022/12/17 23:16:13;;;;;;;36.13;25.83;;;-5.70;99.90;;;;;;5079892;28;20470;-70
2022/12/17 23:18:42;;;;;;;30.80;22.50;;;-5.70;99.90;;;;;;5072750;28;20470;-70
2022/12/17 23:21:11;;;;;;;30.97;23.00;;;-5.70;99.90;;;;;;5076287;28;20471;-70
2022/12/17 23:23:39;;;;;;;37.50;24.57;;;-5.70;99.90;;;;;;5079283;28;20847;-70
2022/12/17 23:26:07;;;;;;;43.37;23.90;;;-5.70;99.90;;;;;;5075808;28;20564;-70
2022/12/17 23:28:35;;;;;;;36.17;23.80;;;-5.80;99.90;;;;;;5078806;28;20542;-69
2022/12/17 23:31:07;;;;;;;38.67;25.53;;;-5.80;99.90;;;;;;5080584;28;20982;-69
2022/12/17 23:33:37;;;;;;;34.70;23.63;;;-5.80;99.90;;;;;;5076908;28;20536;-70
2022/12/17 23:36:09;;;;;;;36.03;24.97;;;-5.80;99.90;;;;;;5080150;28;20854;-69
2022/12/17 23:38:36;;;;;;;31.07;22.83;;;-5.80;99.90;;;;;;5077622;28;20469;-69
2022/12/17 23:41:04;;;;;;;36.53;24.13;;;-5.80;99.90;;;;;;5080536;28;20465;-70
2022/12/17 23:43:31;;;;;;;31.50;22.17;;;-5.70;99.90;;;;;;5081558;28;20554;-69
2022/12/17 23:45:58;;;;;;;31.57;24.10;;;-5.80;99.90;;;;;;5080537;28;20461;-69
2022/12/17 23:48:28;;;;;;;34.43;24.27;;;-5.90;99.90;;;;;;5080328;28;20981;-70
2022/12/17 23:50:55;;;;;;;34.73;23.03;;;-5.90;99.90;;;;;;5079434;28;20459;-69
2022/12/17 23:53:24;;;;;;;31.73;23.80;;;-5.90;99.90;;;;;;5079694;28;20470;-70
2022/12/17 23:55:51;;;;;;;34.00;23.80;;;-5.90;99.90;;;;;;5073456;28;20460;-70
2022/12/17 23:58:17;;;;;;;40.17;25.23;;;-6.00;99.90;;;;;;5077642;28;20850;-69
